Terminal Aerodrome Forecast
Issued by NWS Goodland, KS

Home | Current Version | Previous Version | Text Only | Print | Product List | Glossary On
Versions: 1 2 3 4 5 6 7 8 9 10 11 12 13 14 15 16 17 18 19 20
464
FTUS43 KGLD 242124 AAA
TAFGLD
TAF AMD
KGLD 242124Z 2421/2518 36024G35KT 6SM -SHRA BR SCT006 BKN010
     FM250000 35018G28KT P6SM VCSH BKN015
     FM250300 35012KT P6SM BKN015
     FM250500 31008KT P6SM SCT015 BKN035=

USA.gov is the U.S. government's official web portal to all federal, state and local government web resources and services.